Kezdőlap
METAR-TAF:

METAR-TAF

Repülőterek :

Boone Municipal Airport

Boone, Iowa, Amerikai Egyesült Államok

földrajzi szélesség: 42-03N, földrajzi hosszúság: 093-51W, magasság: 354 m

Jelenlegi meteorológiai megfigyelések

A jelentés 33 perccel ezelõtt készült, 08:35 UTC
Délnyugati szél 3 kt
Hőmérséklet -3°C
Páratartalom 100%
Légköri nyomás 1019 hPa
Látótávolság: 16.1 km
Szórványos felhőzet 4600 lábon
Szakadozott felhőzet 5500 lábon
Borult 9500 lábon

METAR: KBNW 270835Z AUTO 22003KT 10SM SCT046 BKN055 OVC095 M03/M03 A3009 RMK AO2

Idő: 03:08 (09:08 UTC)


TAF: hiányzik

Meteorológiai megfigyelések és előrejelzések több, mint 4000 repülőtéren (METAR és TAF jelentéseket).

A térképen piros és sárga pontok jelzik az elérhető meteorológiai állomásokat.

Mozgassa az egeret a pont fölött, hogy megjelenjen az állomás neve.

Azután kattintson az időjárási megfigyelések és előrejelzések megtekintéséhez.

A térkép megváltoztatása: kattintson a fekete keresztel jelölt zöld gombra ráközelítéshez, a vonallal jelölt zöld gombra távolításhoz, vagy a zöld nyilakra a szomszédos térképek eléréséhez.


METAR-TAF: